createdAt,value
2022-08-02T00:00:24.547Z,19.06
2022-08-02T00:03:07.470Z,19.04
2022-08-02T00:05:53.728Z,19.04
2022-08-02T00:08:36.832Z,19.06
2022-08-02T00:11:19.739Z,19.07
2022-08-02T00:14:03.363Z,19.07
2022-08-02T00:16:46.419Z,19.06
2022-08-02T00:19:29.250Z,19.06
2022-08-02T00:22:12.630Z,19.06
2022-08-02T00:24:55.772Z,19.05
2022-08-02T00:27:38.533Z,19.02
2022-08-02T00:30:21.604Z,19.00
2022-08-02T00:33:05.193Z,18.99
2022-08-02T00:35:47.904Z,18.94
2022-08-02T00:38:30.962Z,18.93
2022-08-02T00:41:16.688Z,18.90
2022-08-02T00:43:59.427Z,18.88
2022-08-02T00:46:42.651Z,18.84
2022-08-02T00:49:27.947Z,18.80
2022-08-02T00:52:11.208Z,18.79
2022-08-02T00:54:54.208Z,18.80
2022-08-02T00:57:36.963Z,18.82
2022-08-02T01:00:20.263Z,18.83
2022-08-02T01:03:03.293Z,18.84
2022-08-02T01:06:09.206Z,18.84
2022-08-02T01:08:52.629Z,18.83
2022-08-02T01:11:36.470Z,18.81
2022-08-02T01:14:20.269Z,18.79
2022-08-02T01:17:08.194Z,18.77
2022-08-02T01:19:58.506Z,18.73
2022-08-02T01:23:04.038Z,18.67
2022-08-02T01:25:56.904Z,18.60
2022-08-02T01:28:43.529Z,18.56
2022-08-02T01:31:29.438Z,18.54
2022-08-02T01:34:18.965Z,18.50
2022-08-02T01:37:07.469Z,18.44
2022-08-02T01:39:55.116Z,18.39
2022-08-02T01:42:43.251Z,18.38
2022-08-02T01:45:30.233Z,18.37
2022-08-02T01:48:14.792Z,18.37
2022-08-02T01:50:58.868Z,18.35
2022-08-02T01:53:45.024Z,18.34
2022-08-02T01:56:28.139Z,18.35
2022-08-02T01:59:13.575Z,18.37
2022-08-02T02:01:57.789Z,18.38
2022-08-02T02:04:43.415Z,18.38
2022-08-02T02:07:29.829Z,18.35
2022-08-02T02:10:16.503Z,18.32
2022-08-02T02:13:03.295Z,18.30
2022-08-02T02:15:48.882Z,18.25
2022-08-02T02:18:39.852Z,18.20
2022-08-02T02:21:22.731Z,18.17
2022-08-02T02:24:07.208Z,18.18
2022-08-02T02:26:54.880Z,18.19
2022-08-02T02:29:43.872Z,18.17
2022-08-02T02:32:29.224Z,18.15
2022-08-02T02:35:16.170Z,18.08
2022-08-02T02:38:02.076Z,18.05
2022-08-02T02:40:46.595Z,18.02
2022-08-02T02:43:32.661Z,17.97
2022-08-02T02:46:16.740Z,17.90
2022-08-02T02:49:00.420Z,17.82
2022-08-02T02:51:44.205Z,17.75
2022-08-02T02:54:34.646Z,17.75
2022-08-02T02:57:19.607Z,17.74
2022-08-02T03:00:03.797Z,17.74
2022-08-02T03:02:48.257Z,17.75
2022-08-02T03:05:31.131Z,17.73
2022-08-02T03:08:14.157Z,17.70
2022-08-02T03:10:57.558Z,17.70
2022-08-02T03:13:40.686Z,17.70
2022-08-02T03:16:27.779Z,17.66
2022-08-02T03:19:11.031Z,17.58
2022-08-02T03:21:57.150Z,17.53
2022-08-02T03:24:40.393Z,17.52
2022-08-02T03:27:23.148Z,17.49
2022-08-02T03:30:09.922Z,17.45
2022-08-02T03:32:52.757Z,17.43
2022-08-02T03:35:36.026Z,17.40
2022-08-02T03:38:22.327Z,17.39
2022-08-02T03:41:16.171Z,17.37
2022-08-02T03:44:00.128Z,17.35
2022-08-02T03:46:44.158Z,17.34
2022-08-02T03:49:28.538Z,17.35
2022-08-02T03:52:12.646Z,17.34
2022-08-02T03:54:56.011Z,17.34
2022-08-02T03:57:39.573Z,17.32
2022-08-02T04:00:23.291Z,17.34
2022-08-02T04:03:06.386Z,17.35
2022-08-02T04:06:03.948Z,17.38
2022-08-02T04:08:47.778Z,17.42
2022-08-02T04:11:30.784Z,17.43
2022-08-02T04:14:13.602Z,17.47
2022-08-02T04:17:00.121Z,17.50
2022-08-02T04:19:48.464Z,17.51
2022-08-02T04:22:37.174Z,17.56
2022-08-02T04:25:34.406Z,17.62
2022-08-02T04:28:20.375Z,17.68
2022-08-02T04:31:11.343Z,17.75
2022-08-02T04:33:54.406Z,17.78
2022-08-02T04:36:38.093Z,17.82
2022-08-02T04:39:20.839Z,17.89
2022-08-02T04:42:03.990Z,17.93
2022-08-02T04:44:46.705Z,17.96
2022-08-02T04:48:03.349Z,18.02
2022-08-02T04:50:32.564Z,18.14
2022-08-02T04:53:15.523Z,18.22
2022-08-02T04:55:58.576Z,18.33
2022-08-02T04:58:41.299Z,18.47
2022-08-02T05:01:24.112Z,18.62
2022-08-02T05:04:06.978Z,18.78
2022-08-02T05:06:49.676Z,18.93
2022-08-02T05:09:32.449Z,19.12
2022-08-02T05:12:15.291Z,19.29
2022-08-02T05:14:57.996Z,19.47
2022-08-02T05:17:48.000Z,19.69
2022-08-02T05:20:31.461Z,19.94
2022-08-02T05:23:14.157Z,20.22
2022-08-02T05:25:59.225Z,20.51
2022-08-02T05:28:44.779Z,20.82
2022-08-02T05:31:27.633Z,21.13
2022-08-02T05:34:12.122Z,21.37
2022-08-02T05:36:55.099Z,21.63
2022-08-02T05:39:38.244Z,21.91
2022-08-02T05:42:38.948Z,22.15
2022-08-02T05:45:21.981Z,22.35
2022-08-02T05:48:05.870Z,22.58
2022-08-02T05:50:54.731Z,22.81
2022-08-02T05:53:45.110Z,22.99
2022-08-02T05:56:35.241Z,23.14
2022-08-02T05:59:31.725Z,23.28
2022-08-02T06:02:30.346Z,23.42
2022-08-02T06:05:16.385Z,23.57
2022-08-02T06:07:59.643Z,23.69
2022-08-02T06:10:46.267Z,23.82
2022-08-02T06:13:29.888Z,23.92
2022-08-02T06:16:14.070Z,23.89
2022-08-02T06:18:59.017Z,23.96
2022-08-02T06:22:34.713Z,24.09
2022-08-02T06:24:50.212Z,24.27
2022-08-02T06:27:34.737Z,24.43
2022-08-02T06:30:19.909Z,24.57
2022-08-02T06:33:02.888Z,24.66
2022-08-02T06:35:51.655Z,24.66
2022-08-02T06:38:41.922Z,24.74
2022-08-02T06:41:40.364Z,24.86
2022-08-02T06:44:49.679Z,24.85
2022-08-02T06:47:33.279Z,24.85
2022-08-02T06:50:16.420Z,24.91
2022-08-02T06:52:59.964Z,24.83
2022-08-02T06:55:43.904Z,24.74
2022-08-02T06:58:27.238Z,24.69
2022-08-02T07:01:10.174Z,24.86
2022-08-02T07:03:52.906Z,25.03
2022-08-02T07:06:36.841Z,25.23
2022-08-02T07:09:21.308Z,25.55
2022-08-02T07:12:06.279Z,25.87
2022-08-02T07:14:49.062Z,26.20
2022-08-02T07:17:32.601Z,26.37
2022-08-02T07:20:16.115Z,26.48
2022-08-02T07:22:58.907Z,26.42
2022-08-02T07:26:03.555Z,26.36
2022-08-02T07:28:45.940Z,26.48
2022-08-02T07:31:28.742Z,26.54
2022-08-02T07:34:11.515Z,26.43
2022-08-02T07:36:54.270Z,26.42
2022-08-02T07:39:37.307Z,26.58
2022-08-02T07:42:28.809Z,26.63
2022-08-02T07:45:12.917Z,26.61
2022-08-02T07:47:56.389Z,26.67
2022-08-02T07:50:39.375Z,26.82
2022-08-02T07:53:50.260Z,27.09
2022-08-02T07:56:25.043Z,27.46
2022-08-02T07:59:09.691Z,27.80
2022-08-02T08:01:52.812Z,28.15
2022-08-02T08:04:35.761Z,28.46
2022-08-02T08:07:18.499Z,28.73
2022-08-02T08:10:01.446Z,28.71
2022-08-02T08:12:44.171Z,28.59
2022-08-02T08:15:26.876Z,28.52
2022-08-02T08:18:09.863Z,28.53
2022-08-02T08:20:54.542Z,28.67
2022-08-02T08:23:37.596Z,28.72
2022-08-02T08:26:20.419Z,28.55
2022-08-02T08:29:05.585Z,28.49
2022-08-02T08:31:48.405Z,28.33
2022-08-02T08:34:31.239Z,28.10
2022-08-02T08:37:16.483Z,28.18
2022-08-02T08:40:00.094Z,28.40
2022-08-02T08:42:42.955Z,28.66
2022-08-02T08:45:26.361Z,28.86
2022-08-02T08:48:13.129Z,28.98
2022-08-02T08:51:00.544Z,29.00
2022-08-02T08:53:47.459Z,28.83
2022-08-02T08:56:35.254Z,28.75
2022-08-02T08:59:18.791Z,28.85
2022-08-02T09:02:16.848Z,28.80
2022-08-02T09:05:04.299Z,28.53
2022-08-02T09:07:51.075Z,28.46
2022-08-02T09:10:36.231Z,28.72
2022-08-02T09:13:38.283Z,29.13
2022-08-02T09:16:34.879Z,29.60
2022-08-02T09:19:19.736Z,29.89
2022-08-02T09:22:04.931Z,30.14
2022-08-02T09:24:49.472Z,30.44
2022-08-02T09:27:36.856Z,30.70
2022-08-02T09:30:19.955Z,30.89
2022-08-02T09:33:05.622Z,30.96
2022-08-02T09:36:06.582Z,31.24
2022-08-02T09:38:57.468Z,31.54
2022-08-02T09:41:41.826Z,31.73
2022-08-02T09:44:31.572Z,31.93
2022-08-02T09:47:17.633Z,32.15
2022-08-02T09:50:00.398Z,32.33
2022-08-02T09:52:44.882Z,32.50
2022-08-02T09:55:30.036Z,32.35
2022-08-02T09:58:18.728Z,32.16
2022-08-02T10:01:02.686Z,31.88
2022-08-02T10:04:03.962Z,31.65
2022-08-02T10:06:48.648Z,31.72
2022-08-02T10:09:31.657Z,31.95
2022-08-02T10:12:15.173Z,32.22
2022-08-02T10:14:59.874Z,32.06
2022-08-02T10:17:44.332Z,31.68
2022-08-02T10:20:28.168Z,31.24
2022-08-02T10:23:13.761Z,31.07
2022-08-02T10:25:57.896Z,30.97
2022-08-02T10:28:45.582Z,30.98
2022-08-02T10:31:30.614Z,30.72
2022-08-02T10:34:17.556Z,30.23
2022-08-02T10:37:03.819Z,29.97
2022-08-02T10:39:50.695Z,30.30
2022-08-02T10:42:47.888Z,30.46
2022-08-02T10:45:30.706Z,30.33
2022-08-02T10:48:14.083Z,30.50
2022-08-02T10:50:59.233Z,31.07
2022-08-02T10:53:41.246Z,31.58
2022-08-02T10:56:46.980Z,31.60
2022-08-02T10:59:31.447Z,31.86
2022-08-02T11:02:32.254Z,32.38
2022-08-02T11:05:17.411Z,32.93
2022-08-02T11:08:19.169Z,33.41
2022-08-02T11:11:15.570Z,33.85
2022-08-02T11:14:03.466Z,34.30
2022-08-02T11:17:21.697Z,34.68
2022-08-02T11:20:19.725Z,35.08
2022-08-02T11:23:45.433Z,35.31
2022-08-02T11:26:45.563Z,35.01
2022-08-02T11:29:38.376Z,34.08
2022-08-02T11:32:30.637Z,34.07
2022-08-02T11:35:13.746Z,34.04
2022-08-02T11:37:58.029Z,34.02
2022-08-02T11:40:42.407Z,33.64
2022-08-02T11:43:26.773Z,33.37
2022-08-02T11:46:15.743Z,33.41
2022-08-02T11:49:10.742Z,33.21
2022-08-02T11:51:57.110Z,32.99
2022-08-02T11:54:41.559Z,32.63
2022-08-02T11:57:24.451Z,32.27
2022-08-02T12:00:16.465Z,31.93
2022-08-02T12:02:59.764Z,31.53
2022-08-02T12:06:05.665Z,31.39
2022-08-02T12:08:54.319Z,31.87
2022-08-02T12:11:38.898Z,32.50
2022-08-02T12:14:23.374Z,33.13
2022-08-02T12:17:24.264Z,33.61
2022-08-02T12:20:08.795Z,34.04
2022-08-02T12:22:51.735Z,33.90
2022-08-02T12:25:35.455Z,33.77
2022-08-02T12:28:21.704Z,33.84
2022-08-02T12:31:05.723Z,33.95
2022-08-02T12:33:51.672Z,34.19
2022-08-02T12:36:34.372Z,34.48
2022-08-02T12:39:17.419Z,34.79
2022-08-02T12:42:00.577Z,35.02
2022-08-02T12:44:52.023Z,35.14
2022-08-02T12:47:45.773Z,35.24
2022-08-02T12:50:31.931Z,35.35
2022-08-02T12:53:16.379Z,35.08
2022-08-02T12:56:03.641Z,34.89
2022-08-02T12:58:50.791Z,34.87
2022-08-02T13:01:34.384Z,34.88
2022-08-02T13:04:17.344Z,34.85
2022-08-02T13:07:00.287Z,34.81
2022-08-02T13:09:44.920Z,34.68
2022-08-02T13:12:27.603Z,34.62
2022-08-02T13:15:46.487Z,34.49
2022-08-02T13:18:13.817Z,34.08
2022-08-02T13:20:56.635Z,33.88
2022-08-02T13:23:53.853Z,33.51
2022-08-02T13:26:37.986Z,32.80
2022-08-02T13:29:23.490Z,32.20
2022-08-02T13:32:07.356Z,31.70
2022-08-02T13:34:50.873Z,31.33
2022-08-02T13:37:34.018Z,30.93
2022-08-02T13:40:23.527Z,30.69
2022-08-02T13:43:06.506Z,30.61
2022-08-02T13:45:49.413Z,30.40
2022-08-02T13:48:33.151Z,30.00
2022-08-02T13:51:15.982Z,29.67
2022-08-02T13:53:58.778Z,29.35
2022-08-02T13:56:41.728Z,28.99
2022-08-02T13:59:56.759Z,28.73
2022-08-02T14:02:28.359Z,28.27
2022-08-02T14:05:11.302Z,27.96
2022-08-02T14:07:54.250Z,27.88
2022-08-02T14:10:37.336Z,27.87
2022-08-02T14:13:20.386Z,27.82
2022-08-02T14:16:04.219Z,27.74
2022-08-02T14:18:47.077Z,27.81
2022-08-02T14:21:29.890Z,27.85
2022-08-02T14:24:31.194Z,27.89
2022-08-02T14:27:15.070Z,27.83
2022-08-02T14:29:57.994Z,27.73
2022-08-02T14:32:40.851Z,27.67
2022-08-02T14:35:23.900Z,27.61
2022-08-02T14:38:06.960Z,27.50
2022-08-02T14:40:52.333Z,27.49
2022-08-02T14:43:52.639Z,27.58
2022-08-02T14:46:37.695Z,27.69
2022-08-02T14:49:25.665Z,27.81
2022-08-02T14:52:09.500Z,27.89
2022-08-02T14:54:52.876Z,27.87
2022-08-02T14:57:35.768Z,27.74
2022-08-02T15:00:19.337Z,27.67
2022-08-02T15:03:02.082Z,27.63
2022-08-02T15:05:44.961Z,27.58
2022-08-02T15:08:27.710Z,27.53
2022-08-02T15:11:10.900Z,27.44
2022-08-02T15:13:54.344Z,27.32
2022-08-02T15:16:55.494Z,27.25
2022-08-02T15:19:57.023Z,27.14
2022-08-02T15:22:43.107Z,27.07
2022-08-02T15:25:26.294Z,27.05
2022-08-02T15:28:09.951Z,27.03
2022-08-02T15:30:52.741Z,26.99
2022-08-02T15:33:35.550Z,26.95
2022-08-02T15:36:18.815Z,26.92
2022-08-02T15:39:02.655Z,26.90
2022-08-02T15:41:45.453Z,26.89
2022-08-02T15:44:28.675Z,26.89
2022-08-02T15:47:11.701Z,26.87
2022-08-02T15:49:54.522Z,26.86
2022-08-02T15:52:37.574Z,26.85
2022-08-02T15:55:20.603Z,26.81
2022-08-02T15:58:03.408Z,26.73
2022-08-02T16:00:47.660Z,26.63
2022-08-02T16:03:30.434Z,26.55
2022-08-02T16:06:14.915Z,26.47
2022-08-02T16:08:57.721Z,26.40
2022-08-02T16:11:40.612Z,26.36
2022-08-02T16:14:23.302Z,26.31
2022-08-02T16:17:06.123Z,26.26
2022-08-02T16:19:51.898Z,26.24
2022-08-02T16:22:37.719Z,26.21
2022-08-02T16:25:20.422Z,26.15
2022-08-02T16:28:07.009Z,26.12
2022-08-02T16:31:09.956Z,26.07
2022-08-02T16:33:56.458Z,26.03
2022-08-02T16:36:40.015Z,26.00
2022-08-02T16:39:22.838Z,25.97
2022-08-02T16:42:05.904Z,25.95
2022-08-02T16:44:53.349Z,25.93
2022-08-02T16:47:42.710Z,25.88
2022-08-02T16:50:29.031Z,25.81
2022-08-02T16:53:15.690Z,25.74
2022-08-02T16:56:15.306Z,25.67
2022-08-02T16:58:59.745Z,25.63
2022-08-02T17:02:11.959Z,25.58
2022-08-02T17:04:46.653Z,25.52
2022-08-02T17:08:07.759Z,25.48
2022-08-02T17:10:34.391Z,25.42
2022-08-02T17:13:17.375Z,25.38
2022-08-02T17:16:20.861Z,25.32
2022-08-02T17:19:04.234Z,25.26
2022-08-02T17:21:46.931Z,25.20
2022-08-02T17:24:29.698Z,25.15
2022-08-02T17:27:14.224Z,25.09
2022-08-02T17:29:58.735Z,25.02
2022-08-02T17:32:45.622Z,24.95
2022-08-02T17:38:31.582Z,24.79
2022-08-02T17:41:15.191Z,24.69
2022-08-02T17:43:58.320Z,24.64
2022-08-02T17:46:41.268Z,24.57
2022-08-02T17:49:25.079Z,24.50
2022-08-02T17:52:48.695Z,24.44
2022-08-02T17:55:12.355Z,24.36
2022-08-02T17:57:58.675Z,24.28
2022-08-02T18:00:42.200Z,24.17
2022-08-02T18:03:27.990Z,24.05
2022-08-02T18:06:13.437Z,23.93
2022-08-02T18:08:57.153Z,23.83
2022-08-02T18:11:52.771Z,23.74
2022-08-02T18:14:38.318Z,23.65
2022-08-02T18:17:31.711Z,23.57
2022-08-02T18:20:14.629Z,23.48
2022-08-02T18:22:58.508Z,23.40
2022-08-02T18:25:47.000Z,23.31
2022-08-02T18:28:32.439Z,23.24
2022-08-02T18:31:22.640Z,23.14
2022-08-02T18:34:06.469Z,23.02
2022-08-02T18:36:49.276Z,22.91
2022-08-02T18:39:34.485Z,22.82
2022-08-02T18:42:24.499Z,22.73
2022-08-02T18:45:08.106Z,22.65
2022-08-02T18:48:04.824Z,22.57
2022-08-02T18:50:50.362Z,22.48
2022-08-02T18:53:41.925Z,22.41
2022-08-02T18:56:25.571Z,22.32
2022-08-02T18:59:09.621Z,22.23
2022-08-02T19:01:53.866Z,22.14
2022-08-02T19:04:37.337Z,22.05
2022-08-02T19:07:22.410Z,21.95
2022-08-02T19:10:07.620Z,21.85
2022-08-02T19:12:52.432Z,21.75
2022-08-02T19:15:37.564Z,21.66
2022-08-02T19:18:26.895Z,21.59
2022-08-02T19:21:14.273Z,21.53
2022-08-02T19:23:57.175Z,21.45
2022-08-02T19:26:40.729Z,21.36
2022-08-02T19:29:25.062Z,21.23
2022-08-02T19:32:41.275Z,21.14
2022-08-02T19:35:34.244Z,21.06
2022-08-02T19:38:17.617Z,20.99
2022-08-02T19:41:01.762Z,20.93
2022-08-02T19:44:26.323Z,20.87
2022-08-02T19:46:49.092Z,20.81
2022-08-02T19:49:39.356Z,20.75
2022-08-02T19:52:26.725Z,20.69
2022-08-02T19:56:00.403Z,20.62
2022-08-02T19:58:13.968Z,20.54
2022-08-02T20:00:56.946Z,20.49
2022-08-02T20:03:52.618Z,20.45
2022-08-02T20:06:36.382Z,20.39
2022-08-02T20:09:22.503Z,20.34
2022-08-02T20:12:06.965Z,20.29
2022-08-02T20:14:54.025Z,20.22
2022-08-02T20:17:38.580Z,20.17
2022-08-02T20:20:31.287Z,20.11
2022-08-02T20:23:32.434Z,20.05
2022-08-02T20:26:16.344Z,19.97
2022-08-02T20:29:02.507Z,19.90
2022-08-02T20:31:45.712Z,19.87
2022-08-02T20:34:29.189Z,19.85
2022-08-02T20:38:00.053Z,19.82
2022-08-02T20:40:16.589Z,19.79
2022-08-02T20:43:18.119Z,19.74
2022-08-02T20:46:00.933Z,19.67
2022-08-02T20:48:45.004Z,19.61
2022-08-02T20:51:33.410Z,19.53
2022-08-02T20:54:16.760Z,19.46
2022-08-02T20:57:04.228Z,19.40
2022-08-02T20:59:52.149Z,19.36
2022-08-02T21:02:35.328Z,19.31
2022-08-02T21:05:19.683Z,19.27
2022-08-02T21:08:14.184Z,19.22
2022-08-02T21:10:57.646Z,19.18
2022-08-02T21:13:47.119Z,19.15
2022-08-02T21:16:43.743Z,19.13
2022-08-02T21:19:26.575Z,19.08
2022-08-02T21:22:09.628Z,19.06
2022-08-02T21:24:52.435Z,19.05
2022-08-02T21:27:52.771Z,19.03
2022-08-02T21:30:36.768Z,18.99
2022-08-02T21:33:23.695Z,18.95
2022-08-02T21:36:06.792Z,18.91
2022-08-02T21:38:50.245Z,18.88
2022-08-02T21:41:38.995Z,18.84
2022-08-02T21:44:29.506Z,18.80
2022-08-02T21:47:16.064Z,18.75
2022-08-02T21:50:13.703Z,18.69
2022-08-02T21:52:59.332Z,18.61
2022-08-02T21:56:00.048Z,18.53
2022-08-02T21:58:44.299Z,18.48
2022-08-02T22:01:29.767Z,18.47
2022-08-02T22:04:15.377Z,18.45
2022-08-02T22:06:59.248Z,18.42
2022-08-02T22:09:45.292Z,18.39
2022-08-02T22:12:28.555Z,18.33
2022-08-02T22:15:11.811Z,18.29
2022-08-02T22:18:00.109Z,18.24
2022-08-02T22:20:43.268Z,18.17
2022-08-02T22:23:38.709Z,18.13
2022-08-02T22:26:32.100Z,18.12
2022-08-02T22:29:15.017Z,18.11
2022-08-02T22:31:57.708Z,18.10
2022-08-02T22:34:51.989Z,18.06
2022-08-02T22:38:16.482Z,18.00
2022-08-02T22:40:39.869Z,17.93
2022-08-02T22:46:26.432Z,17.81
2022-08-02T22:49:09.652Z,17.74
2022-08-02T22:52:12.279Z,17.70
2022-08-02T22:54:57.259Z,17.68
2022-08-02T22:57:56.437Z,17.65
2022-08-02T22:58:39.206Z,24.88
2022-08-02T23:00:40.060Z,17.62
2022-08-02T23:03:23.003Z,17.57
2022-08-02T23:06:06.232Z,17.53
2022-08-02T23:08:49.099Z,17.48
2022-08-02T23:11:32.125Z,17.43
2022-08-02T23:14:15.493Z,17.41
2022-08-02T23:17:16.553Z,17.39
2022-08-02T23:19:59.398Z,17.37
2022-08-02T23:22:42.116Z,17.34
2022-08-02T23:25:25.026Z,17.29
2022-08-02T23:28:07.804Z,17.23
2022-08-02T23:30:50.698Z,17.18
2022-08-02T23:33:33.587Z,17.12
2022-08-02T23:36:20.795Z,17.06
2022-08-02T23:39:03.905Z,17.03
2022-08-02T23:41:49.315Z,17.00
2022-08-02T23:44:37.883Z,16.96
2022-08-02T23:47:21.651Z,16.92
2022-08-02T23:50:05.863Z,16.85
2022-08-02T23:52:48.710Z,16.79
2022-08-02T23:55:31.421Z,16.76
2022-08-02T23:58:14.394Z,16.74
